Time;durP1;ratioP1;P1;durP2;ratioP2;P2;SDS_P1;SDS_P2;PMS_P1;PMS_P2;Temp;Humidity;BMP_temperature;BMP_pressure;BME280_temperature;BME280_humidity;BME280_pressure;Samples;Min_cycle;Max_cycle;Signal;HPM_P1;HPM_P2
2022/04/20 00:02:13;;;;;;;0.60;0.60;;;9.20;39.90;8.60;97999.00;;;;5116979;28;20194;-76
2022/04/20 00:04:42;;;;;;;0.80;0.80;;;9.20;39.90;8.60;97998.00;;;;5116539;28;20649;-76
2022/04/20 00:07:10;;;;;;;0.53;0.53;;;9.20;39.60;8.50;97994.00;;;;5117804;28;20198;-77
2022/04/20 00:09:39;;;;;;;0.80;0.80;;;9.10;39.60;8.60;98001.00;;;;5118231;28;20502;-77
2022/04/20 00:12:07;;;;;;;0.77;0.77;;;9.20;39.60;8.50;97988.00;;;;5116692;28;20194;-76
2022/04/20 00:14:34;;;;;;;0.50;0.50;;;9.10;39.60;8.50;97993.00;;;;5116414;28;20699;-76
2022/04/20 00:17:01;;;;;;;0.80;0.80;;;9.10;40.00;8.50;97987.00;;;;5117131;28;20197;-75
2022/04/20 00:19:27;;;;;;;0.80;0.80;;;9.20;40.20;8.50;97983.00;;;;5116201;28;20216;-76
2022/04/20 00:21:54;;;;;;;0.83;0.83;;;9.20;40.50;8.50;97986.00;;;;5116236;28;20214;-76
2022/04/20 00:24:21;;;;;;;0.93;0.93;;;9.20;40.30;8.60;97979.00;;;;5116235;28;20225;-76
2022/04/20 00:26:47;;;;;;;1.13;1.13;;;9.20;40.60;8.50;97977.00;;;;5116079;28;20656;-76
2022/04/20 00:29:16;;;;;;;0.87;0.87;;;9.20;40.60;8.40;97981.00;;;;5098330;28;20228;-76
2022/04/20 00:31:43;;;;;;;0.80;0.80;;;9.20;41.10;8.60;97985.00;;;;5115766;28;20222;-76
2022/04/20 00:34:09;;;;;;;1.00;1.00;;;9.20;41.40;8.60;97992.00;;;;5116036;28;20194;-76
2022/04/20 00:36:36;;;;;;;0.60;0.60;;;9.20;41.20;8.50;97980.00;;;;5116076;28;20531;-76
2022/04/20 00:39:05;;;;;;;0.50;0.50;;;9.20;41.40;8.70;97991.00;;;;5115909;28;20256;-76
2022/04/20 00:41:32;;;;;;;1.00;1.00;;;9.30;42.40;8.70;97994.00;;;;5116110;28;20263;-76
2022/04/20 00:44:00;;;;;;;1.10;1.10;;;9.30;42.30;8.80;97991.00;;;;5115888;28;20221;-76
2022/04/20 00:46:31;;;;;;;0.77;0.77;;;9.30;42.30;8.80;97995.00;;;;5115849;28;20213;-75
2022/04/20 00:49:02;;;;;;;0.60;0.60;;;9.40;42.50;8.70;97991.00;;;;5097961;28;20228;-76
2022/04/20 00:51:30;;;;;;;0.80;0.80;;;9.30;41.70;8.80;97986.00;;;;5097914;28;20575;-76
2022/04/20 00:54:00;;;;;;;0.70;0.70;;;9.40;43.40;8.70;97994.00;;;;5115679;28;20321;-76
2022/04/20 00:56:27;;;;;;;0.80;0.80;;;9.30;42.30;8.60;97998.00;;;;5115621;28;20545;-76
2022/04/20 00:58:56;;;;;;;0.73;0.73;;;9.20;42.00;8.60;97996.00;;;;5115545;28;20256;-76
2022/04/20 01:01:23;;;;;;;1.00;1.00;;;9.20;43.00;8.50;97984.00;;;;5097766;28;20213;-76
2022/04/20 01:03:50;;;;;;;0.70;0.70;;;9.10;43.00;8.50;97979.00;;;;5115385;28;20225;-77
2022/04/20 01:06:16;;;;;;;1.03;1.03;;;9.10;43.80;8.40;97982.00;;;;5115613;28;20194;-77
2022/04/20 01:08:44;;;;;;;1.40;1.30;;;9.10;43.30;8.40;97993.00;;;;5115826;28;20229;-76
2022/04/20 01:11:11;;;;;;;0.63;0.63;;;9.00;43.70;8.30;97985.00;;;;5115534;28;20222;-76
2022/04/20 01:13:38;;;;;;;1.87;1.77;;;9.00;44.00;8.30;97990.00;;;;5115677;28;20250;-76
2022/04/20 01:16:05;;;;;;;1.10;1.10;;;8.90;44.40;8.10;97991.00;;;;5097620;28;20198;-76
2022/04/20 01:18:32;;;;;;;0.90;0.83;;;8.80;44.40;8.10;97983.00;;;;5097775;28;20221;-76
2022/04/20 01:21:00;;;;;;;0.70;0.70;;;8.80;45.20;8.00;97986.00;;;;5115656;28;20277;-76
2022/04/20 01:23:27;;;;;;;0.97;0.97;;;8.70;45.50;8.10;97987.00;;;;5097183;28;20198;-75
2022/04/20 01:25:53;;;;;;;0.87;0.87;;;8.70;46.10;8.00;97990.00;;;;5097506;28;20221;-77
2022/04/20 01:28:23;;;;;;;1.13;1.13;;;8.60;46.10;7.90;97984.00;;;;5115220;28;20705;-75
2022/04/20 01:30:51;;;;;;;1.00;1.00;;;8.60;45.90;7.80;97981.00;;;;5115053;28;20249;-76
2022/04/20 01:33:18;;;;;;;0.80;0.80;;;8.50;45.90;7.60;97981.00;;;;5115165;28;20528;-76
2022/04/20 01:35:47;;;;;;;1.00;1.00;;;8.40;46.40;7.60;97979.00;;;;5115139;28;20319;-76
2022/04/20 01:38:17;;;;;;;1.00;1.00;;;8.30;46.80;7.60;97975.00;;;;5114826;28;20210;-76
2022/04/20 01:40:44;;;;;;;0.80;0.80;;;8.20;47.00;7.40;97977.00;;;;5115039;28;20217;-76
2022/04/20 01:43:10;;;;;;;0.80;0.80;;;8.10;46.80;7.40;97980.00;;;;5114035;28;20182;-76
2022/04/20 01:45:37;;;;;;;0.70;0.70;;;8.00;47.80;7.40;97976.00;;;;5115080;28;20229;-76
2022/04/20 01:48:06;;;;;;;0.60;0.60;;;8.00;47.30;7.40;97983.00;;;;5115038;28;20194;-76
2022/04/20 01:50:32;;;;;;;0.87;0.87;;;8.00;47.70;7.30;97981.00;;;;5114345;28;20290;-76
2022/04/20 01:52:59;;;;;;;5.13;1.57;;;7.90;47.00;7.40;97946.00;;;;5116080;28;20201;-76
2022/04/20 01:55:26;;;;;;;2.60;1.10;;;7.90;47.80;7.30;97977.00;;;;5119688;28;20280;-76
2022/04/20 01:57:55;;;;;;;1.00;1.00;;;8.00;47.30;7.20;97982.00;;;;5119639;28;20228;-76
2022/04/20 02:00:21;;;;;;;0.83;0.83;;;7.80;47.50;7.30;97972.00;;;;5099286;28;20198;-76
2022/04/20 02:02:48;;;;;;;1.17;1.10;;;7.90;47.90;7.00;97983.00;;;;5114784;28;20702;-75
2022/04/20 02:05:15;;;;;;;0.90;0.90;;;7.80;47.60;7.10;97981.00;;;;5114609;28;20288;-76
2022/04/20 02:07:41;;;;;;;0.93;0.93;;;7.70;48.30;7.10;97985.00;;;;5114568;28;20633;-76
2022/04/20 02:10:08;;;;;;;0.77;0.77;;;7.70;48.50;7.10;97981.00;;;;5114570;28;20275;-76
2022/04/20 02:12:36;;;;;;;0.93;0.93;;;7.70;48.80;7.00;97986.00;;;;5114492;28;20190;-76
2022/04/20 02:15:06;;;;;;;0.87;0.87;;;7.70;48.80;6.80;97980.00;;;;5114457;28;20681;-76
2022/04/20 02:17:36;;;;;;;0.77;0.77;;;7.50;48.70;6.80;97979.00;;;;5096271;28;20239;-76
2022/04/20 02:20:03;;;;;;;0.80;0.80;;;7.50;49.40;6.80;97971.00;;;;5114405;28;20242;-76
2022/04/20 02:22:29;;;;;;;0.73;0.73;;;7.50;49.80;6.80;97976.00;;;;5114318;28;20219;-76
2022/04/20 02:24:56;;;;;;;0.90;0.90;;;7.50;49.90;6.80;97980.00;;;;5114402;28;20233;-76
2022/04/20 02:27:22;;;;;;;0.83;0.83;;;7.40;49.90;6.70;97970.00;;;;5114238;28;20288;-76
2022/04/20 02:29:52;;;;;;;0.90;0.90;;;7.40;49.80;6.70;97972.00;;;;5114146;28;20190;-74
2022/04/20 02:32:22;;;;;;;0.67;0.67;;;7.30;50.10;6.60;97974.00;;;;5096483;28;20293;-76
2022/04/20 02:34:48;;;;;;;0.70;0.70;;;7.30;50.40;6.70;97975.00;;;;5096542;28;20647;-76
2022/04/20 02:37:15;;;;;;;0.73;0.73;;;7.30;50.50;6.70;97975.00;;;;5114314;28;20228;-76
2022/04/20 02:39:44;;;;;;;0.90;0.90;;;7.30;51.00;6.60;97970.00;;;;5114224;28;20227;-76
2022/04/20 02:42:12;;;;;;;0.87;0.87;;;7.20;50.90;6.60;97971.00;;;;5114191;28;20231;-76
2022/04/20 02:44:40;;;;;;;0.90;0.90;;;7.20;51.50;6.60;97972.00;;;;5114121;28;20245;-76
2022/04/20 02:47:08;;;;;;;0.80;0.80;;;7.20;51.60;6.50;97972.00;;;;5096040;28;20300;-76
2022/04/20 02:49:35;;;;;;;0.83;0.83;;;7.20;52.20;6.50;97973.00;;;;5114042;28;20652;-74
2022/04/20 02:52:02;;;;;;;1.63;1.53;;;7.20;52.50;6.50;97977.00;;;;5113961;28;20216;-76
2022/04/20 02:54:29;;;;;;;1.07;1.07;;;7.10;52.50;6.40;97971.00;;;;5098941;28;20206;-75
2022/04/20 02:56:56;;;;;;;1.00;1.00;;;7.20;53.00;6.30;97979.00;;;;5117426;28;20602;-75
2022/04/20 02:59:24;;;;;;;0.70;0.70;;;7.10;53.40;6.30;97963.00;;;;5117433;28;20247;-76
2022/04/20 03:01:51;;;;;;;1.10;1.10;;;7.00;53.50;6.40;97972.00;;;;5117489;28;20201;-76
2022/04/20 03:04:19;;;;;;;0.90;0.90;;;7.00;53.90;6.40;97969.00;;;;5117368;28;20590;-76
2022/04/20 03:06:45;;;;;;;1.10;1.10;;;7.00;53.70;6.50;97975.00;;;;5099446;28;20199;-76
2022/04/20 03:09:14;;;;;;;1.00;1.00;;;7.10;54.00;6.50;97975.00;;;;5117349;28;20253;-76
2022/04/20 03:11:41;;;;;;;0.80;0.80;;;7.10;52.60;6.40;97980.00;;;;5117354;28;20197;-76
2022/04/20 03:14:07;;;;;;;0.83;0.83;;;7.10;52.70;6.50;97986.00;;;;5117334;28;20232;-76
2022/04/20 03:16:34;;;;;;;0.80;0.80;;;7.10;52.80;6.50;97986.00;;;;5117191;28;20272;-76
2022/04/20 03:19:01;;;;;;;1.30;1.30;;;7.10;52.20;6.40;97985.00;;;;5117197;28;20250;-76
2022/04/20 03:21:30;;;;;;;1.03;1.03;;;7.10;52.40;6.60;97977.00;;;;5117289;28;20247;-77
2022/04/20 03:23:56;;;;;;;0.80;0.80;;;7.20;52.70;6.50;97982.00;;;;5117110;28;20205;-76
2022/04/20 03:26:23;;;;;;;0.80;0.80;;;7.20;52.20;6.50;97984.00;;;;5117177;28;20226;-76
2022/04/20 03:28:49;;;;;;;3.10;1.23;;;7.20;51.90;6.40;97987.00;;;;5117150;28;20297;-76
2022/04/20 03:31:17;;;;;;;4.40;1.00;;;7.10;52.50;6.20;97990.00;;;;5099128;28;20197;-76
2022/04/20 03:33:44;;;;;;;1.03;1.03;;;7.00;52.80;6.40;97987.00;;;;5117421;28;20303;-76
2022/04/20 03:36:11;;;;;;;0.93;0.93;;;7.00;52.80;6.40;97991.00;;;;5117329;28;20193;-76
2022/04/20 03:38:40;;;;;;;0.60;0.60;;;7.00;53.20;6.50;97989.00;;;;5117367;28;20229;-76
2022/04/20 03:41:07;;;;;;;1.40;1.30;;;7.10;53.00;6.30;97989.00;;;;5099297;28;20221;-76
2022/04/20 03:43:35;;;;;;;1.10;1.07;;;7.00;52.40;6.20;97989.00;;;;5117086;28;20219;-76
2022/04/20 03:46:05;;;;;;;1.33;1.27;;;6.80;52.50;6.20;97986.00;;;;5117152;28;20656;-76
2022/04/20 03:48:34;;;;;;;1.17;1.17;;;6.80;53.40;6.20;97984.00;;;;5099097;28;20575;-76
2022/04/20 03:51:00;;;;;;;1.40;0.90;;;6.80;53.20;6.30;97986.00;;;;5099251;28;20240;-76
2022/04/20 03:53:27;;;;;;;0.67;0.67;;;6.90;52.90;6.20;97991.00;;;;5118165;28;20281;-75
2022/04/20 03:55:54;;;;;;;0.97;0.97;;;;;6.20;97985.00;;;;5099958;28;20620;-77
2022/04/20 03:58:21;;;;;;;0.70;0.70;;;6.90;51.50;6.10;97986.00;;;;5101677;28;20222;-76
2022/04/20 04:00:47;;;;;;;0.67;0.67;;;6.70;52.70;5.90;97985.00;;;;5120738;28;20709;-76
2022/04/20 04:03:16;;;;;;;0.80;0.80;;;6.60;53.00;5.80;97977.00;;;;5120926;28;20230;-76
2022/04/20 04:05:43;;;;;;;1.30;1.20;;;6.50;53.40;5.90;97988.00;;;;5118500;28;20228;-76
2022/04/20 04:08:12;;;;;;;0.87;0.87;;;6.50;53.80;5.90;97968.00;;;;5116667;28;20185;-76
2022/04/20 04:10:39;;;;;;;1.10;1.10;;;6.50;54.00;5.80;97974.00;;;;5116442;28;20218;-77
2022/04/20 04:13:07;;;;;;;1.00;1.00;;;6.50;53.90;5.60;97985.00;;;;5098358;28;20630;-76
2022/04/20 04:15:33;;;;;;;1.20;1.20;;;6.40;54.20;5.80;97988.00;;;;5116412;28;20637;-76
2022/04/20 04:18:01;;;;;;;1.87;1.77;;;6.40;54.50;5.60;97981.00;;;;5116092;28;20313;-76
2022/04/20 04:20:28;;;;;;;0.70;0.70;;;6.40;54.30;5.60;97977.00;;;;5098300;28;20190;-75
2022/04/20 04:22:55;;;;;;;13.43;1.57;;;6.30;54.40;5.70;97963.00;;;;5098202;28;20292;-76
2022/04/20 04:25:22;;;;;;;0.80;0.80;;;6.30;54.40;5.70;97979.00;;;;5116237;28;20198;-76
2022/04/20 04:27:50;;;;;;;0.83;0.83;;;6.30;54.80;5.60;97979.00;;;;5098177;28;20217;-76
2022/04/20 04:30:18;;;;;;;1.10;1.10;;;6.30;55.10;5.60;97982.00;;;;5098260;28;20230;-76
2022/04/20 04:32:44;;;;;;;1.77;1.67;;;6.30;55.40;5.40;97978.00;;;;5098330;28;20210;-75
2022/04/20 04:35:13;;;;;;;0.90;0.90;;;6.20;55.10;5.50;97985.00;;;;5098009;28;20258;-75
2022/04/20 04:37:40;;;;;;;1.43;1.33;;;6.20;55.20;5.50;97979.00;;;;5115899;28;20200;-76
2022/04/20 04:40:08;;;;;;;1.00;1.00;;;6.10;55.40;5.50;97975.00;;;;5098237;28;20298;-76
2022/04/20 04:42:34;;;;;;;0.80;0.80;;;6.10;55.90;5.60;97989.00;;;;5114978;28;20575;-76
2022/04/20 04:50:30;;;;;;;2.33;1.83;;;6.20;56.30;5.60;97988.00;;;;5115565;28;20234;-76
2022/04/20 04:52:57;;;;;;;1.60;1.20;;;6.20;55.80;5.50;97992.00;;;;5115849;28;20316;-77
2022/04/20 04:55:26;;;;;;;0.80;0.80;;;6.20;56.40;5.50;97988.00;;;;5115709;28;20548;-76
2022/04/20 04:57:55;;;;;;;1.17;1.17;;;6.20;55.40;5.40;97990.00;;;;5115588;28;20236;-77
2022/04/20 05:00:22;;;;;;;1.20;1.20;;;6.00;55.40;5.30;97992.00;;;;5097906;28;20199;-76
2022/04/20 05:02:51;;;;;;;0.90;0.90;;;6.00;55.60;5.40;98003.00;;;;5097556;28;20291;-76
2022/04/20 05:05:21;;;;;;;0.70;0.70;;;6.00;56.20;5.40;97999.00;;;;5115682;28;20205;-77
2022/04/20 05:07:47;;;;;;;1.03;1.03;;;6.00;56.20;5.30;97989.00;;;;5115535;28;20199;-76
2022/04/20 05:10:14;;;;;;;0.80;0.80;;;6.00;56.60;5.20;97993.00;;;;5097697;28;20657;-76
2022/04/20 05:12:40;;;;;;;0.83;0.83;;;6.00;57.00;5.20;97991.00;;;;5115491;28;20668;-76
2022/04/20 05:15:08;;;;;;;1.00;1.00;;;6.00;56.80;5.20;97988.00;;;;5115378;28;20649;-76
2022/04/20 05:17:34;;;;;;;2.33;1.43;;;6.00;56.90;5.20;97989.00;;;;5113988;28;20304;-77
2022/04/20 05:20:01;;;;;;;1.00;1.00;;;5.90;57.10;5.30;97989.00;;;;5097346;28;20222;-76
2022/04/20 05:22:28;;;;;;;0.90;0.90;;;6.00;57.20;5.40;97984.00;;;;5115248;28;20284;-76
2022/04/20 05:24:54;;;;;;;0.80;0.80;;;6.10;57.40;5.40;97984.00;;;;5097429;28;20234;-76
2022/04/20 05:27:21;;;;;;;0.90;0.90;;;6.10;57.10;5.40;97983.00;;;;5115287;28;20195;-76
2022/04/20 05:29:47;;;;;;;0.90;0.90;;;6.20;57.40;5.60;97990.00;;;;5115203;28;20220;-76
2022/04/20 05:32:16;;;;;;;1.07;1.07;;;6.30;57.70;5.70;97994.00;;;;5115113;28;20204;-77
2022/04/20 05:34:43;;;;;;;1.07;1.03;;;6.30;57.70;5.80;97990.00;;;;5115110;28;20272;-77
2022/04/20 05:42:45;;;;;;;1.40;1.30;;;6.70;56.70;6.10;97997.00;;;;5115365;28;20231;-76
2022/04/20 05:45:12;;;;;;;0.60;0.60;;;6.70;56.80;6.40;97993.00;;;;5115444;28;20295;-76
2022/04/20 05:47:39;;;;;;;0.97;0.97;;;6.80;56.40;6.50;97996.00;;;;5097213;28;20206;-76
2022/04/20 05:50:06;;;;;;;0.73;0.73;;;7.00;56.20;6.50;97970.00;;;;5115159;28;20619;-77
2022/04/20 05:52:36;;;;;;;0.90;0.90;;;7.10;56.00;6.60;97996.00;;;;5114912;28;20200;-76
2022/04/20 05:55:04;;;;;;;0.80;0.80;;;7.20;56.00;6.70;97994.00;;;;5115583;28;20201;-77
2022/04/20 05:57:32;;;;;;;0.83;0.83;;;7.30;55.90;6.80;98003.00;;;;5114949;28;20212;-77
2022/04/20 05:59:59;;;;;;;1.03;1.03;;;7.40;55.50;6.80;98001.00;;;;5115141;28;20227;-76
2022/04/20 06:02:25;;;;;;;1.10;1.10;;;7.40;54.80;6.90;97998.00;;;;5097502;28;20301;-77
2022/04/20 06:04:52;;;;;;;0.80;0.80;;;7.50;54.50;6.80;97991.00;;;;5115080;28;20561;-76
2022/04/20 06:07:19;;;;;;;1.47;1.47;;;7.50;54.40;6.90;97994.00;;;;5115139;28;20198;-76
2022/04/20 06:09:49;;;;;;;0.87;0.87;;;7.50;53.10;7.00;97995.00;;;;5096859;28;20233;-77
2022/04/20 06:12:15;;;;;;;0.80;0.80;;;7.60;53.10;7.10;98000.00;;;;5115037;28;20209;-76
2022/04/20 06:14:42;;;;;;;2.03;1.30;;;7.70;52.70;7.10;98006.00;;;;5114892;28;20204;-77
2022/04/20 06:17:09;;;;;;;1.40;1.30;;;7.80;51.80;7.20;98009.00;;;;5114903;28;20309;-76
2022/04/20 06:19:37;;;;;;;1.40;1.30;;;7.80;52.00;7.20;98010.00;;;;5114491;28;20279;-76
2022/04/20 06:22:04;;;;;;;1.00;1.00;;;7.80;51.60;7.20;98003.00;;;;5114727;28;20543;-76
2022/04/20 06:24:31;;;;;;;1.50;1.40;;;7.90;51.80;7.20;98011.00;;;;5114629;28;20269;-76
2022/04/20 06:26:58;;;;;;;1.53;1.43;;;7.90;51.50;7.40;98005.00;;;;5114523;28;20189;-76
2022/04/20 06:29:25;;;;;;;0.70;0.70;;;8.00;51.10;7.40;98006.00;;;;5113916;28;20249;-76
2022/04/20 06:31:52;;;;;;;0.63;0.63;;;8.00;50.70;7.40;98002.00;;;;5114455;28;20641;-75
2022/04/20 06:34:18;;;;;;;0.73;0.73;;;8.10;50.30;7.60;97995.00;;;;5114797;28;20259;-76
2022/04/20 06:36:45;;;;;;;1.40;1.30;;;8.20;49.40;7.60;98005.00;;;;5096277;28;20321;-77
2022/04/20 06:39:12;;;;;;;1.17;1.17;;;8.20;49.90;7.60;98001.00;;;;5114173;28;20296;-77
2022/04/20 06:41:41;;;;;;;0.70;0.70;;;8.20;49.50;7.70;97998.00;;;;5114433;28;20255;-76
2022/04/20 06:44:09;;;;;;;0.63;0.63;;;8.30;49.40;7.70;98004.00;;;;5096163;28;20193;-77
2022/04/20 06:46:35;;;;;;;0.83;0.83;;;8.30;49.20;7.80;98007.00;;;;5113937;28;20498;-75
2022/04/20 06:49:03;;;;;;;1.00;1.00;;;8.40;49.20;7.80;98003.00;;;;5113843;28;20221;-79
2022/04/20 06:58:31;;;;;;;0.90;0.90;;;8.50;49.20;7.80;98006.00;;;;5114007;28;20221;-75
2022/04/20 06:59:50;;;;;;;1.63;1.53;;;8.60;47.70;8.10;98005.00;;;;5114137;28;20213;-77
2022/04/20 07:02:16;;;;;;;1.30;1.20;;;8.60;47.30;8.20;97995.00;;;;5113790;28;20228;-76
2022/04/20 07:04:43;;;;;;;0.90;0.90;;;8.70;46.80;8.10;98000.00;;;;5113742;28;20201;-76
2022/04/20 07:07:12;;;;;;;1.47;1.37;;;8.80;46.30;8.20;98000.00;;;;5113771;28;20194;-76
2022/04/20 07:09:39;;;;;;;2.27;1.30;;;8.90;46.20;8.40;97988.00;;;;5113778;28;20263;-77
2022/04/20 07:12:06;;;;;;;1.10;1.10;;;9.00;46.20;8.40;97991.00;;;;5114299;28;20273;-77
2022/04/20 07:14:33;;;;;;;1.27;1.20;;;9.00;45.90;8.50;97992.00;;;;5096473;28;20229;-77
2022/04/20 07:17:02;;;;;;;0.80;0.80;;;9.00;45.60;8.60;97993.00;;;;5121646;28;20224;-78
2022/04/20 07:19:28;;;;;;;1.00;1.00;;;9.20;45.00;8.60;97989.00;;;;5117044;28;20606;-76
2022/04/20 07:21:55;;;;;;;0.90;0.90;;;9.20;45.00;8.80;98000.00;;;;5116989;28;20233;-78
2022/04/20 07:24:21;;;;;;;0.70;0.70;;;9.30;45.10;8.90;97997.00;;;;5114224;28;20224;-77
2022/04/20 07:26:50;;;;;;;0.70;0.70;;;9.40;44.40;8.80;97987.00;;;;5114409;28;20274;-76
2022/04/20 07:29:17;;;;;;;1.13;1.00;;;9.40;43.80;8.90;97991.00;;;;5114289;28;20200;-77
2022/04/20 07:31:43;;;;;;;0.90;0.90;;;9.50;44.00;8.90;97986.00;;;;5114669;28;20202;-76
2022/04/20 07:34:11;;;;;;;1.63;1.53;;;9.50;44.00;9.00;97980.00;;;;5095551;28;20225;-76
2022/04/20 07:36:37;;;;;;;0.83;0.83;;;9.60;43.40;9.10;97986.00;;;;5113442;28;20528;-77
2022/04/20 07:39:06;;;;;;;2.47;1.23;;;9.70;42.30;9.30;97985.00;;;;5113339;28;20222;-78
2022/04/20 07:41:33;;;;;;;4.07;1.00;;;9.80;42.50;9.20;97984.00;;;;5116199;28;20250;-77
2022/04/20 07:44:01;;;;;;;1.50;1.40;;;9.90;42.30;9.40;97995.00;;;;5116820;28;20202;-75
2022/04/20 07:46:28;;;;;;;0.77;0.77;;;9.90;42.60;9.50;97990.00;;;;5116794;28;20201;-75
2022/04/20 07:48:54;;;;;;;3.90;1.87;;;10.00;41.70;9.40;97999.00;;;;5116702;28;20213;-75
2022/04/20 07:51:22;;;;;;;0.50;0.50;;;10.00;41.60;9.50;98011.00;;;;5116714;28;20694;-75
2022/04/20 07:53:48;;;;;;;0.73;0.73;;;10.10;42.00;9.60;97996.00;;;;5116534;28;20222;-76
2022/04/20 07:56:15;;;;;;;0.93;0.93;;;10.10;41.10;9.70;98003.00;;;;5116551;28;20229;-75
2022/04/20 07:58:41;;;;;;;0.70;0.70;;;10.20;41.10;9.70;97996.00;;;;5115540;28;20229;-76
2022/04/20 08:01:09;;;;;;;0.60;0.60;;;10.30;40.70;10.00;98004.00;;;;5116442;28;20232;-77
2022/04/20 08:03:36;;;;;;;0.70;0.70;;;10.50;40.00;10.10;97993.00;;;;5116613;28;20214;-77
2022/04/20 08:06:02;;;;;;;0.90;0.90;;;10.60;39.50;10.00;98001.00;;;;5116599;28;20644;-77
2022/04/20 08:08:29;;;;;;;0.60;0.60;;;10.60;39.70;10.20;97980.00;;;;5116546;28;20305;-78
2022/04/20 08:10:56;;;;;;;0.70;0.70;;;10.70;38.70;10.20;97992.00;;;;5098789;28;20205;-77
2022/04/20 08:16:07;;;;;;;0.80;0.80;;;10.80;38.60;10.30;97990.00;;;;5116342;28;20209;-77
2022/04/20 08:18:34;;;;;;;0.97;0.97;;;10.90;37.80;10.30;97999.00;;;;5116215;28;20616;-75
2022/04/20 08:21:00;;;;;;;1.63;1.43;;;10.90;37.70;10.40;97998.00;;;;5116371;28;20253;-76
2022/04/20 08:23:29;;;;;;;0.90;0.90;;;11.00;37.10;10.50;97997.00;;;;5116217;28;20197;-78
2022/04/20 08:25:56;;;;;;;1.23;1.23;;;11.00;37.00;10.50;98004.00;;;;5116264;28;20258;-77
2022/04/20 08:28:25;;;;;;;0.60;0.60;;;11.10;37.00;10.70;98003.00;;;;5116385;28;20222;-77
2022/04/20 08:30:52;;;;;;;0.50;0.50;;;11.20;36.30;10.70;98001.00;;;;5116151;28;20194;-77
2022/04/20 08:33:21;;;;;;;1.00;1.00;;;11.20;36.30;10.90;98009.00;;;;5115892;28;20226;-78
2022/04/20 08:35:48;;;;;;;0.90;0.90;;;11.30;36.30;10.80;97958.00;;;;5116219;28;20198;-78
2022/04/20 08:38:15;;;;;;;0.90;0.90;;;11.40;35.50;10.80;98005.00;;;;5116702;28;20221;-78
2022/04/20 08:40:45;;;;;;;0.77;0.77;;;11.40;35.80;10.90;98003.00;;;;5116916;28;20225;-78
2022/04/20 08:43:12;;;;;;;0.70;0.70;;;11.50;36.20;11.00;98009.00;;;;5107123;28;20194;-76
2022/04/20 08:45:40;;;;;;;0.87;0.87;;;11.60;35.80;11.00;98008.00;;;;5120043;28;20281;-75
2022/04/20 08:48:08;;;;;;;1.50;1.30;;;11.60;35.30;11.00;98004.00;;;;5118161;28;20198;-74
2022/04/20 08:50:39;;;;;;;0.70;0.70;;;11.60;35.70;11.10;98008.00;;;;5114786;28;20225;-76
2022/04/20 08:53:06;;;;;;;0.90;0.90;;;11.70;35.80;11.30;98005.00;;;;5115711;28;20275;-76
2022/04/20 08:55:35;;;;;;;0.80;0.80;;;11.80;36.10;11.40;98003.00;;;;5115865;28;20193;-76
2022/04/20 08:58:04;;;;;;;0.90;0.90;;;11.90;35.30;11.50;98001.00;;;;5115557;28;20269;-77
2022/04/20 09:00:32;;;;;;;1.30;1.20;;;11.90;35.40;11.50;97995.00;;;;5115665;28;20213;-76
2022/04/20 09:03:03;;;;;;;1.00;1.00;;;12.00;35.40;11.60;97990.00;;;;5115074;28;20216;-78
2022/04/20 09:05:35;;;;;;;0.67;0.67;;;12.10;35.10;11.70;97989.00;;;;5115460;28;20256;-77
2022/04/20 09:08:12;;;;;;;1.30;1.27;;;12.20;34.80;11.90;97992.00;;;;5097387;28;20656;-76
2022/04/20 09:10:39;;;;;;;0.60;0.60;;;12.30;34.60;11.90;97981.00;;;;5115463;28;20258;-77
2022/04/20 09:13:09;;;;;;;0.70;0.70;;;12.40;34.20;11.90;97986.00;;;;5115388;28;20228;-76
2022/04/20 09:15:39;;;;;;;0.70;0.70;;;12.50;33.70;11.90;97981.00;;;;5097416;28;20221;-77
2022/04/20 09:18:09;;;;;;;1.03;1.03;;;12.50;33.20;11.80;97988.00;;;;5115134;28;20317;-77
2022/04/20 09:20:38;;;;;;;0.90;0.90;;;12.40;33.60;12.20;97983.00;;;;5115151;28;20596;-76
2022/04/20 09:23:08;;;;;;;1.33;1.23;;;12.60;33.50;12.30;97984.00;;;;5097279;28;20202;-75
2022/04/20 09:25:36;;;;;;;0.90;0.90;;;12.80;33.60;12.30;97988.00;;;;5097209;28;20708;-78
2022/04/20 09:28:04;;;;;;;1.00;1.00;;;12.90;33.30;12.40;97983.00;;;;5115225;28;20629;-75
2022/04/20 09:30:38;;;;;;;1.00;1.00;;;13.00;31.90;12.40;97985.00;;;;5097040;28;20198;-77
2022/04/20 09:33:07;;;;;;;0.60;0.60;;;12.90;32.40;12.50;97986.00;;;;5115122;28;20193;-77
2022/04/20 09:35:42;;;;;;;1.37;1.27;;;13.00;32.10;12.70;97979.00;;;;5097255;28;20237;-78
2022/04/20 09:38:10;;;;;;;0.73;0.73;;;13.10;31.50;12.70;97986.00;;;;5114840;28;20252;-77
2022/04/20 09:40:38;;;;;;;0.90;0.90;;;13.20;31.80;12.90;97970.00;;;;5096915;28;20259;-77
2022/04/20 09:43:07;;;;;;;1.20;1.20;;;13.30;30.70;12.90;97990.00;;;;5114887;28;20255;-75
2022/04/20 09:45:34;;;;;;;0.97;0.97;;;13.40;31.60;13.00;97991.00;;;;5114857;28;20212;-78
2022/04/20 09:51:10;;;;;;;0.90;0.90;;;13.50;29.70;13.10;97987.00;;;;5114778;28;20728;-77
2022/04/20 09:53:37;;;;;;;1.57;1.13;;;13.60;30.50;13.10;97965.00;;;;5097348;28;20204;-77
2022/04/20 09:56:18;;;;;;;0.70;0.70;;;13.70;29.30;13.30;97979.00;;;;5114807;28;20229;-78
2022/04/20 09:58:58;;;;;;;0.67;0.67;;;13.80;30.10;13.30;97983.00;;;;5114728;28;20224;-77
2022/04/20 10:01:31;;;;;;;1.50;0.80;;;13.90;29.80;13.60;97980.00;;;;5113995;28;20220;-75
2022/04/20 10:04:00;;;;;;;0.80;0.80;;;14.00;29.20;13.70;97979.00;;;;5113640;28;20218;-77
2022/04/20 10:06:27;;;;;;;1.07;1.07;;;14.10;29.00;13.70;97951.00;;;;5114463;28;20202;-76
2022/04/20 10:08:56;;;;;;;0.80;0.80;;;14.20;28.20;13.70;97955.00;;;;5114559;28;20261;-77
2022/04/20 10:11:24;;;;;;;0.60;0.60;;;14.20;30.10;13.90;97976.00;;;;5114383;28;20208;-79
2022/04/20 10:16:46;;;;;;;0.60;0.60;;;14.50;29.30;14.20;97960.00;;;;5114707;28;20250;-79
2022/04/20 10:19:16;;;;;;;0.80;0.80;;;14.50;28.80;14.10;97958.00;;;;5114470;28;20735;-77
2022/04/20 10:21:50;;;;;;;1.07;1.07;;;14.60;28.90;14.40;97961.00;;;;5114566;28;20635;-79
2022/04/20 10:24:24;;;;;;;0.90;0.90;;;14.80;27.90;14.30;97937.00;;;;5114381;28;20198;-77
2022/04/20 10:26:55;;;;;;;0.50;0.50;;;14.80;26.70;14.40;97951.00;;;;5114337;28;20194;-76
2022/04/20 10:29:33;;;;;;;20.13;1.37;;;14.90;27.40;14.60;97944.00;;;;5114017;28;20688;-78
2022/04/20 10:32:10;;;;;;;0.80;0.80;;;15.00;27.00;14.70;97946.00;;;;5114162;28;20193;-77
2022/04/20 10:34:40;;;;;;;0.90;0.90;;;15.10;26.80;14.80;97935.00;;;;5114231;28;20266;-75
2022/04/20 10:37:19;;;;;;;0.70;0.70;;;15.30;26.70;14.90;97939.00;;;;5114226;28;20201;-77
2022/04/20 10:39:46;;;;;;;1.50;1.40;;;15.30;26.50;15.00;97934.00;;;;5114044;28;20533;-76
2022/04/20 10:42:23;;;;;;;1.57;1.47;;;15.50;26.10;14.90;97929.00;;;;5114134;28;20282;-77
2022/04/20 10:45:01;;;;;;;0.87;0.87;;;15.40;25.70;15.00;97929.00;;;;5096098;28;20637;-76
2022/04/20 10:47:32;;;;;;;0.70;0.70;;;15.50;25.90;15.30;97935.00;;;;5114205;28;20352;-78
2022/04/20 10:50:21;;;;;;;1.53;1.00;;;15.70;26.90;15.30;97930.00;;;;5114124;28;20271;-74
2022/04/20 10:52:52;;;;;;;0.60;0.60;;;15.90;23.90;15.50;97928.00;;;;5114620;28;20538;-78
2022/04/20 10:56:01;;;;;;;0.73;0.73;;;15.90;24.90;15.70;97929.00;;;;5117719;28;20256;-78
2022/04/20 10:58:27;;;;;;;0.60;0.60;;;16.00;25.40;15.70;97924.00;;;;5112118;28;20320;-79
2022/04/20 11:01:10;;;;;;;0.57;0.57;;;16.10;25.00;16.00;97917.00;;;;5116445;28;20205;-78
2022/04/20 11:04:08;;;;;;;0.70;0.70;;;16.30;23.50;16.00;97919.00;;;;5114806;28;20185;-78
2022/04/20 11:07:14;;;;;;;0.60;0.60;;;16.50;23.30;16.20;97916.00;;;;5111638;28;20222;-78
2022/04/20 11:09:59;;;;;;;0.70;0.70;;;16.60;22.50;16.30;97915.00;;;;5095861;28;20660;-78
2022/04/20 11:18:42;;;;;;;0.60;0.60;;;17.00;23.50;16.90;97901.00;;;;5116261;28;20213;-78
2022/04/20 11:21:17;;;;;;;1.07;1.00;;;17.20;21.70;17.20;97897.00;;;;5117094;28;20225;-77
2022/04/20 11:23:58;;;;;;;0.57;0.57;;;17.50;21.90;17.30;97897.00;;;;5099411;28;20259;-79
2022/04/20 11:26:28;;;;;;;0.77;0.77;;;17.70;21.40;17.20;97887.00;;;;5117155;28;20232;-78
2022/04/20 11:28:57;;;;;;;0.60;0.60;;;17.70;21.70;17.60;97885.00;;;;5099296;28;20229;-79
2022/04/20 11:31:24;;;;;;;0.63;0.63;;;18.00;22.00;17.70;97884.00;;;;5116959;28;20694;-79
2022/04/20 11:33:52;;;;;;;0.73;0.73;;;18.00;20.10;18.10;97874.00;;;;5116979;28;20218;-79
2022/04/20 11:36:20;;;;;;;0.90;0.90;;;18.30;21.50;18.10;97874.00;;;;5117056;28;20194;-78
2022/04/20 11:38:50;;;;;;;1.00;1.00;;;18.40;20.50;18.20;97872.00;;;;5116942;28;20275;-79
2022/04/20 11:41:19;;;;;;;0.60;0.60;;;18.60;19.90;18.40;97863.00;;;;5098936;28;20290;-78
2022/04/20 11:43:49;;;;;;;0.53;0.53;;;;;18.20;97878.00;;;;5116758;28;20632;-76